sensor_id;sensor_type;location;lat;lon;timestamp;P1;durP1;ratioP1;P2;durP2;ratioP2
11653;SDS011;5883;48.818;9.114;2023-09-18T00:01:38;3.17;;;2.35;;
11653;SDS011;5883;48.818;9.114;2023-09-18T00:04:24;3.50;;;2.10;;
11653;SDS011;5883;48.818;9.114;2023-09-18T00:07:09;2.88;;;2.45;;
11653;SDS011;5883;48.818;9.114;2023-09-18T00:09:56;4.95;;;2.38;;
11653;SDS011;5883;48.818;9.114;2023-09-18T00:12:42;3.17;;;2.10;;
11653;SDS011;5883;48.818;9.114;2023-09-18T00:15:27;2.63;;;2.42;;
11653;SDS011;5883;48.818;9.114;2023-09-18T00:18:13;3.35;;;2.10;;
11653;SDS011;5883;48.818;9.114;2023-09-18T00:20:58;2.40;;;2.20;;
11653;SDS011;5883;48.818;9.114;2023-09-18T00:23:43;2.22;;;2.00;;
11653;SDS011;5883;48.818;9.114;2023-09-18T00:26:31;2.60;;;2.30;;
11653;SDS011;5883;48.818;9.114;2023-09-18T00:29:16;3.50;;;2.30;;
11653;SDS011;5883;48.818;9.114;2023-09-18T00:32:01;2.55;;;2.35;;
11653;SDS011;5883;48.818;9.114;2023-09-18T00:34:47;2.78;;;2.28;;
11653;SDS011;5883;48.818;9.114;2023-09-18T00:37:31;5.05;;;2.15;;
11653;SDS011;5883;48.818;9.114;2023-09-18T00:40:17;3.47;;;2.30;;
11653;SDS011;5883;48.818;9.114;2023-09-18T00:43:04;3.10;;;2.30;;
11653;SDS011;5883;48.818;9.114;2023-09-18T00:45:49;4.45;;;2.35;;
11653;SDS011;5883;48.818;9.114;2023-09-18T00:48:34;5.68;;;2.65;;
11653;SDS011;5883;48.818;9.114;2023-09-18T00:51:20;2.65;;;2.30;;
11653;SDS011;5883;48.818;9.114;2023-09-18T00:54:05;3.08;;;2.50;;
11653;SDS011;5883;48.818;9.114;2023-09-18T00:56:50;3.17;;;2.28;;
11653;SDS011;5883;48.818;9.114;2023-09-18T00:59:39;4.43;;;2.30;;
11653;SDS011;5883;48.818;9.114;2023-09-18T01:02:24;2.28;;;1.92;;
11653;SDS011;5883;48.818;9.114;2023-09-18T01:05:10;4.57;;;2.50;;
11653;SDS011;5883;48.818;9.114;2023-09-18T01:07:55;5.20;;;2.50;;
11653;SDS011;5883;48.818;9.114;2023-09-18T01:10:41;2.30;;;2.10;;
11653;SDS011;5883;48.818;9.114;2023-09-18T01:13:34;3.78;;;2.50;;
11653;SDS011;5883;48.818;9.114;2023-09-18T01:16:24;3.53;;;2.55;;
11653;SDS011;5883;48.818;9.114;2023-09-18T01:19:10;2.78;;;2.25;;
11653;SDS011;5883;48.818;9.114;2023-09-18T01:21:56;5.35;;;2.60;;
11653;SDS011;5883;48.818;9.114;2023-09-18T01:24:43;2.75;;;2.25;;
11653;SDS011;5883;48.818;9.114;2023-09-18T01:27:28;2.80;;;2.30;;
11653;SDS011;5883;48.818;9.114;2023-09-18T01:30:13;2.85;;;2.55;;
11653;SDS011;5883;48.818;9.114;2023-09-18T01:32:59;5.25;;;2.63;;
11653;SDS011;5883;48.818;9.114;2023-09-18T01:35:44;2.67;;;2.45;;
11653;SDS011;5883;48.818;9.114;2023-09-18T01:38:30;4.57;;;2.53;;
11653;SDS011;5883;48.818;9.114;2023-09-18T01:41:16;4.15;;;2.40;;
11653;SDS011;5883;48.818;9.114;2023-09-18T01:44:02;2.97;;;2.30;;
11653;SDS011;5883;48.818;9.114;2023-09-18T01:46:48;4.10;;;2.60;;
11653;SDS011;5883;48.818;9.114;2023-09-18T01:49:35;4.30;;;2.60;;
11653;SDS011;5883;48.818;9.114;2023-09-18T01:52:20;2.65;;;2.45;;
11653;SDS011;5883;48.818;9.114;2023-09-18T01:55:06;2.53;;;1.77;;
11653;SDS011;5883;48.818;9.114;2023-09-18T01:57:52;4.72;;;1.92;;
11653;SDS011;5883;48.818;9.114;2023-09-18T02:00:37;8.23;;;2.47;;
11653;SDS011;5883;48.818;9.114;2023-09-18T02:03:23;9.02;;;2.75;;
11653;SDS011;5883;48.818;9.114;2023-09-18T02:06:08;7.55;;;2.42;;
11653;SDS011;5883;48.818;9.114;2023-09-18T02:08:53;13.52;;;3.00;;
11653;SDS011;5883;48.818;9.114;2023-09-18T02:11:40;10.63;;;2.50;;
11653;SDS011;5883;48.818;9.114;2023-09-18T02:14:26;8.20;;;2.50;;
11653;SDS011;5883;48.818;9.114;2023-09-18T02:17:14;8.77;;;2.42;;
11653;SDS011;5883;48.818;9.114;2023-09-18T02:19:59;9.50;;;2.50;;
11653;SDS011;5883;48.818;9.114;2023-09-18T02:22:48;8.70;;;3.00;;
11653;SDS011;5883;48.818;9.114;2023-09-18T02:25:33;9.20;;;2.60;;
11653;SDS011;5883;48.818;9.114;2023-09-18T02:28:18;4.10;;;1.95;;
11653;SDS011;5883;48.818;9.114;2023-09-18T02:31:05;10.05;;;2.90;;
11653;SDS011;5883;48.818;9.114;2023-09-18T02:33:51;10.93;;;2.78;;
11653;SDS011;5883;48.818;9.114;2023-09-18T02:36:36;8.73;;;2.22;;
11653;SDS011;5883;48.818;9.114;2023-09-18T02:39:22;6.72;;;2.50;;
11653;SDS011;5883;48.818;9.114;2023-09-18T02:42:06;7.53;;;2.58;;
11653;SDS011;5883;48.818;9.114;2023-09-18T02:44:51;7.07;;;2.67;;
11653;SDS011;5883;48.818;9.114;2023-09-18T02:47:38;7.18;;;2.60;;
11653;SDS011;5883;48.818;9.114;2023-09-18T02:50:24;6.43;;;2.80;;
11653;SDS011;5883;48.818;9.114;2023-09-18T02:53:12;8.57;;;2.70;;
11653;SDS011;5883;48.818;9.114;2023-09-18T02:56:01;8.70;;;3.00;;
11653;SDS011;5883;48.818;9.114;2023-09-18T02:58:46;5.07;;;2.33;;
11653;SDS011;5883;48.818;9.114;2023-09-18T03:01:31;4.22;;;1.98;;
11653;SDS011;5883;48.818;9.114;2023-09-18T03:04:18;5.60;;;2.53;;
11653;SDS011;5883;48.818;9.114;2023-09-18T03:07:03;4.65;;;2.25;;
11653;SDS011;5883;48.818;9.114;2023-09-18T03:09:49;10.40;;;2.20;;
11653;SDS011;5883;48.818;9.114;2023-09-18T03:12:34;9.13;;;2.45;;
11653;SDS011;5883;48.818;9.114;2023-09-18T03:15:19;5.85;;;2.30;;
11653;SDS011;5883;48.818;9.114;2023-09-18T03:18:05;2.55;;;1.90;;
11653;SDS011;5883;48.818;9.114;2023-09-18T03:20:52;5.85;;;2.25;;
11653;SDS011;5883;48.818;9.114;2023-09-18T03:23:37;9.50;;;2.28;;
11653;SDS011;5883;48.818;9.114;2023-09-18T03:26:22;5.80;;;2.50;;
11653;SDS011;5883;48.818;9.114;2023-09-18T03:29:07;7.00;;;2.17;;
11653;SDS011;5883;48.818;9.114;2023-09-18T03:31:52;7.05;;;2.55;;
11653;SDS011;5883;48.818;9.114;2023-09-18T03:34:41;4.63;;;2.42;;
11653;SDS011;5883;48.818;9.114;2023-09-18T03:37:27;7.00;;;2.10;;
11653;SDS011;5883;48.818;9.114;2023-09-18T03:40:12;7.30;;;2.17;;
11653;SDS011;5883;48.818;9.114;2023-09-18T03:42:57;6.03;;;2.22;;
11653;SDS011;5883;48.818;9.114;2023-09-18T03:45:43;7.18;;;2.95;;
11653;SDS011;5883;48.818;9.114;2023-09-18T03:48:28;6.43;;;2.38;;
11653;SDS011;5883;48.818;9.114;2023-09-18T03:51:14;4.40;;;2.17;;
11653;SDS011;5883;48.818;9.114;2023-09-18T03:54:01;6.07;;;2.30;;
11653;SDS011;5883;48.818;9.114;2023-09-18T03:56:48;4.47;;;2.50;;
11653;SDS011;5883;48.818;9.114;2023-09-18T03:59:33;7.07;;;2.47;;
11653;SDS011;5883;48.818;9.114;2023-09-18T04:02:17;6.85;;;2.83;;
11653;SDS011;5883;48.818;9.114;2023-09-18T04:05:03;8.02;;;2.88;;
11653;SDS011;5883;48.818;9.114;2023-09-18T04:07:48;5.10;;;2.70;;
11653;SDS011;5883;48.818;9.114;2023-09-18T04:10:34;6.45;;;2.60;;
11653;SDS011;5883;48.818;9.114;2023-09-18T04:13:20;6.10;;;2.40;;
11653;SDS011;5883;48.818;9.114;2023-09-18T04:16:05;5.88;;;2.28;;
11653;SDS011;5883;48.818;9.114;2023-09-18T04:18:51;6.80;;;2.45;;
11653;SDS011;5883;48.818;9.114;2023-09-18T04:21:36;8.90;;;2.35;;
11653;SDS011;5883;48.818;9.114;2023-09-18T04:24:21;4.18;;;2.40;;
11653;SDS011;5883;48.818;9.114;2023-09-18T04:27:08;4.50;;;2.30;;
11653;SDS011;5883;48.818;9.114;2023-09-18T04:29:53;5.45;;;2.20;;
11653;SDS011;5883;48.818;9.114;2023-09-18T04:32:39;7.00;;;2.30;;
11653;SDS011;5883;48.818;9.114;2023-09-18T04:35:24;8.10;;;2.72;;
11653;SDS011;5883;48.818;9.114;2023-09-18T04:38:09;4.00;;;2.10;;
11653;SDS011;5883;48.818;9.114;2023-09-18T04:40:58;6.70;;;2.60;;
11653;SDS011;5883;48.818;9.114;2023-09-18T04:43:45;5.75;;;2.33;;
11653;SDS011;5883;48.818;9.114;2023-09-18T04:46:30;6.32;;;2.17;;
11653;SDS011;5883;48.818;9.114;2023-09-18T04:49:15;10.77;;;2.78;;
11653;SDS011;5883;48.818;9.114;2023-09-18T04:52:01;5.15;;;2.58;;
11653;SDS011;5883;48.818;9.114;2023-09-18T04:54:46;8.02;;;2.70;;
11653;SDS011;5883;48.818;9.114;2023-09-18T04:57:31;7.60;;;2.30;;
11653;SDS011;5883;48.818;9.114;2023-09-18T05:00:18;7.32;;;2.60;;
11653;SDS011;5883;48.818;9.114;2023-09-18T05:03:06;6.07;;;2.63;;
11653;SDS011;5883;48.818;9.114;2023-09-18T05:05:52;7.35;;;2.75;;
11653;SDS011;5883;48.818;9.114;2023-09-18T05:08:37;5.13;;;2.22;;
11653;SDS011;5883;48.818;9.114;2023-09-18T05:11:22;6.30;;;2.55;;
11653;SDS011;5883;48.818;9.114;2023-09-18T05:14:07;8.75;;;2.58;;
11653;SDS011;5883;48.818;9.114;2023-09-18T05:16:53;6.50;;;2.80;;
11653;SDS011;5883;48.818;9.114;2023-09-18T05:19:38;5.07;;;3.00;;
11653;SDS011;5883;48.818;9.114;2023-09-18T05:22:23;10.90;;;3.15;;
11653;SDS011;5883;48.818;9.114;2023-09-18T05:25:08;4.72;;;2.97;;
11653;SDS011;5883;48.818;9.114;2023-09-18T05:27:54;7.20;;;2.80;;
11653;SDS011;5883;48.818;9.114;2023-09-18T05:30:43;8.27;;;3.00;;
11653;SDS011;5883;48.818;9.114;2023-09-18T05:33:29;4.72;;;2.97;;
11653;SDS011;5883;48.818;9.114;2023-09-18T05:36:14;11.25;;;2.60;;
11653;SDS011;5883;48.818;9.114;2023-09-18T05:38:59;7.30;;;2.55;;
11653;SDS011;5883;48.818;9.114;2023-09-18T05:41:44;8.63;;;2.70;;
11653;SDS011;5883;48.818;9.114;2023-09-18T05:44:30;3.40;;;2.50;;
11653;SDS011;5883;48.818;9.114;2023-09-18T05:47:15;5.75;;;2.17;;
11653;SDS011;5883;48.818;9.114;2023-09-18T05:50:02;6.80;;;2.72;;
11653;SDS011;5883;48.818;9.114;2023-09-18T05:52:49;5.63;;;2.20;;
11653;SDS011;5883;48.818;9.114;2023-09-18T05:55:35;7.93;;;2.30;;
11653;SDS011;5883;48.818;9.114;2023-09-18T05:58:21;9.10;;;2.38;;
11653;SDS011;5883;48.818;9.114;2023-09-18T06:01:09;6.60;;;2.40;;
11653;SDS011;5883;48.818;9.114;2023-09-18T06:03:54;5.15;;;2.15;;
11653;SDS011;5883;48.818;9.114;2023-09-18T06:06:41;7.93;;;2.42;;
11653;SDS011;5883;48.818;9.114;2023-09-18T06:09:26;5.63;;;2.38;;
11653;SDS011;5883;48.818;9.114;2023-09-18T06:12:12;8.20;;;2.40;;
11653;SDS011;5883;48.818;9.114;2023-09-18T06:14:58;7.32;;;2.03;;
11653;SDS011;5883;48.818;9.114;2023-09-18T06:17:43;6.78;;;2.00;;
11653;SDS011;5883;48.818;9.114;2023-09-18T06:20:28;7.50;;;2.30;;
11653;SDS011;5883;48.818;9.114;2023-09-18T06:23:15;6.07;;;2.33;;
11653;SDS011;5883;48.818;9.114;2023-09-18T06:26:00;5.65;;;2.50;;
11653;SDS011;5883;48.818;9.114;2023-09-18T06:28:45;4.43;;;1.98;;
11653;SDS011;5883;48.818;9.114;2023-09-18T06:31:30;8.13;;;2.50;;
11653;SDS011;5883;48.818;9.114;2023-09-18T06:34:16;7.13;;;1.95;;
11653;SDS011;5883;48.818;9.114;2023-09-18T06:37:01;10.93;;;2.67;;
11653;SDS011;5883;48.818;9.114;2023-09-18T06:39:49;7.25;;;2.45;;
11653;SDS011;5883;48.818;9.114;2023-09-18T06:42:34;6.72;;;2.70;;
11653;SDS011;5883;48.818;9.114;2023-09-18T06:45:19;5.75;;;1.95;;
11653;SDS011;5883;48.818;9.114;2023-09-18T06:48:05;5.40;;;1.75;;
11653;SDS011;5883;48.818;9.114;2023-09-18T06:50:50;4.07;;;1.67;;
11653;SDS011;5883;48.818;9.114;2023-09-18T06:53:35;5.75;;;1.95;;
11653;SDS011;5883;48.818;9.114;2023-09-18T06:56:22;4.90;;;1.80;;
11653;SDS011;5883;48.818;9.114;2023-09-18T06:59:07;4.47;;;1.90;;
11653;SDS011;5883;48.818;9.114;2023-09-18T07:01:53;4.63;;;1.95;;
11653;SDS011;5883;48.818;9.114;2023-09-18T07:04:38;6.93;;;1.90;;
11653;SDS011;5883;48.818;9.114;2023-09-18T07:07:28;3.30;;;1.27;;
11653;SDS011;5883;48.818;9.114;2023-09-18T07:10:13;6.40;;;1.60;;
11653;SDS011;5883;48.818;9.114;2023-09-18T07:12:59;3.65;;;1.20;;
11653;SDS011;5883;48.818;9.114;2023-09-18T07:15:45;5.78;;;1.60;;
11653;SDS011;5883;48.818;9.114;2023-09-18T07:18:31;4.28;;;1.42;;
11653;SDS011;5883;48.818;9.114;2023-09-18T07:21:16;3.13;;;1.35;;
11653;SDS011;5883;48.818;9.114;2023-09-18T07:24:01;2.58;;;1.30;;
11653;SDS011;5883;48.818;9.114;2023-09-18T07:26:47;4.10;;;1.35;;
11653;SDS011;5883;48.818;9.114;2023-09-18T07:29:34;3.42;;;1.40;;
11653;SDS011;5883;48.818;9.114;2023-09-18T07:32:19;2.40;;;1.30;;
11653;SDS011;5883;48.818;9.114;2023-09-18T07:35:05;3.55;;;1.15;;
11653;SDS011;5883;48.818;9.114;2023-09-18T07:37:51;4.22;;;1.27;;
11653;SDS011;5883;48.818;9.114;2023-09-18T07:40:36;3.15;;;1.25;;
11653;SDS011;5883;48.818;9.114;2023-09-18T07:43:21;3.63;;;1.52;;
11653;SDS011;5883;48.818;9.114;2023-09-18T07:46:08;5.05;;;1.20;;
11653;SDS011;5883;48.818;9.114;2023-09-18T07:48:55;2.88;;;1.02;;
11653;SDS011;5883;48.818;9.114;2023-09-18T07:51:40;2.40;;;1.38;;
11653;SDS011;5883;48.818;9.114;2023-09-18T07:54:25;3.30;;;1.20;;
11653;SDS011;5883;48.818;9.114;2023-09-18T07:57:11;3.30;;;1.13;;
11653;SDS011;5883;48.818;9.114;2023-09-18T07:59:57;3.05;;;1.10;;
11653;SDS011;5883;48.818;9.114;2023-09-18T08:02:44;2.92;;;1.08;;
11653;SDS011;5883;48.818;9.114;2023-09-18T08:05:30;5.45;;;1.48;;
11653;SDS011;5883;48.818;9.114;2023-09-18T08:08:15;4.47;;;1.42;;
11653;SDS011;5883;48.818;9.114;2023-09-18T08:11:06;2.22;;;1.13;;
11653;SDS011;5883;48.818;9.114;2023-09-18T08:13:52;2.25;;;1.33;;
11653;SDS011;5883;48.818;9.114;2023-09-18T08:16:38;4.30;;;1.02;;
11653;SDS011;5883;48.818;9.114;2023-09-18T08:19:24;2.42;;;1.27;;
11653;SDS011;5883;48.818;9.114;2023-09-18T08:22:10;1.48;;;0.80;;
11653;SDS011;5883;48.818;9.114;2023-09-18T08:24:59;1.42;;;0.80;;
11653;SDS011;5883;48.818;9.114;2023-09-18T08:27:44;4.25;;;1.00;;
11653;SDS011;5883;48.818;9.114;2023-09-18T08:30:30;2.85;;;1.10;;
11653;SDS011;5883;48.818;9.114;2023-09-18T08:33:16;3.95;;;1.15;;
11653;SDS011;5883;48.818;9.114;2023-09-18T08:36:02;1.85;;;0.98;;
11653;SDS011;5883;48.818;9.114;2023-09-18T08:38:47;3.78;;;1.20;;
11653;SDS011;5883;48.818;9.114;2023-09-18T08:41:32;2.90;;;1.10;;
11653;SDS011;5883;48.818;9.114;2023-09-18T08:44:18;3.45;;;1.20;;
11653;SDS011;5883;48.818;9.114;2023-09-18T08:47:03;2.28;;;1.00;;
11653;SDS011;5883;48.818;9.114;2023-09-18T08:49:49;2.40;;;0.95;;
11653;SDS011;5883;48.818;9.114;2023-09-18T08:52:38;5.15;;;1.23;;
11653;SDS011;5883;48.818;9.114;2023-09-18T08:55:24;2.35;;;1.10;;
11653;SDS011;5883;48.818;9.114;2023-09-18T08:58:09;3.50;;;1.10;;
11653;SDS011;5883;48.818;9.114;2023-09-18T09:00:55;2.00;;;1.13;;
11653;SDS011;5883;48.818;9.114;2023-09-18T09:03:41;3.35;;;1.10;;
11653;SDS011;5883;48.818;9.114;2023-09-18T09:06:29;2.30;;;1.10;;
11653;SDS011;5883;48.818;9.114;2023-09-18T09:09:16;3.33;;;1.25;;
11653;SDS011;5883;48.818;9.114;2023-09-18T09:12:03;2.75;;;1.30;;
11653;SDS011;5883;48.818;9.114;2023-09-18T09:15:01;2.45;;;1.50;;
11653;SDS011;5883;48.818;9.114;2023-09-18T09:17:47;2.10;;;1.40;;
11653;SDS011;5883;48.818;9.114;2023-09-18T09:20:32;3.88;;;1.58;;
11653;SDS011;5883;48.818;9.114;2023-09-18T09:23:19;3.20;;;1.20;;
11653;SDS011;5883;48.818;9.114;2023-09-18T09:26:13;2.70;;;1.52;;
11653;SDS011;5883;48.818;9.114;2023-09-18T09:29:00;6.32;;;1.20;;
11653;SDS011;5883;48.818;9.114;2023-09-18T09:32:11;4.18;;;1.40;;
11653;SDS011;5883;48.818;9.114;2023-09-18T09:34:57;4.22;;;1.13;;
11653;SDS011;5883;48.818;9.114;2023-09-18T09:37:44;4.65;;;0.98;;
11653;SDS011;5883;48.818;9.114;2023-09-18T09:40:30;3.40;;;1.27;;
11653;SDS011;5883;48.818;9.114;2023-09-18T09:43:17;4.10;;;1.20;;
11653;SDS011;5883;48.818;9.114;2023-09-18T09:46:03;3.60;;;1.50;;
11653;SDS011;5883;48.818;9.114;2023-09-18T09:48:58;4.20;;;1.40;;
11653;SDS011;5883;48.818;9.114;2023-09-18T09:51:45;2.58;;;1.20;;
11653;SDS011;5883;48.818;9.114;2023-09-18T09:54:33;2.40;;;1.15;;
11653;SDS011;5883;48.818;9.114;2023-09-18T09:57:23;1.95;;;1.50;;
11653;SDS011;5883;48.818;9.114;2023-09-18T10:00:10;3.92;;;1.30;;
11653;SDS011;5883;48.818;9.114;2023-09-18T10:03:09;3.05;;;1.45;;
11653;SDS011;5883;48.818;9.114;2023-09-18T10:05:55;5.40;;;1.23;;
11653;SDS011;5883;48.818;9.114;2023-09-18T10:08:41;5.25;;;1.63;;
11653;SDS011;5883;48.818;9.114;2023-09-18T10:11:26;4.18;;;1.38;;
11653;SDS011;5883;48.818;9.114;2023-09-18T10:14:12;3.40;;;1.23;;
11653;SDS011;5883;48.818;9.114;2023-09-18T10:17:03;1.60;;;1.08;;
11653;SDS011;5883;48.818;9.114;2023-09-18T10:19:54;4.35;;;1.50;;
11653;SDS011;5883;48.818;9.114;2023-09-18T10:22:44;3.30;;;1.48;;
11653;SDS011;5883;48.818;9.114;2023-09-18T10:25:31;3.85;;;1.45;;
11653;SDS011;5883;48.818;9.114;2023-09-18T10:28:16;5.03;;;1.50;;
11653;SDS011;5883;48.818;9.114;2023-09-18T10:31:02;5.85;;;1.67;;
11653;SDS011;5883;48.818;9.114;2023-09-18T10:33:51;4.22;;;1.70;;
11653;SDS011;5883;48.818;9.114;2023-09-18T10:36:37;2.30;;;1.45;;
11653;SDS011;5883;48.818;9.114;2023-09-18T10:39:23;3.90;;;1.40;;
11653;SDS011;5883;48.818;9.114;2023-09-18T10:42:10;4.82;;;1.38;;
11653;SDS011;5883;48.818;9.114;2023-09-18T10:44:57;2.67;;;1.50;;
11653;SDS011;5883;48.818;9.114;2023-09-18T10:47:43;3.95;;;1.85;;
11653;SDS011;5883;48.818;9.114;2023-09-18T10:50:30;2.35;;;1.42;;
11653;SDS011;5883;48.818;9.114;2023-09-18T10:53:15;1.50;;;1.20;;
11653;SDS011;5883;48.818;9.114;2023-09-18T10:56:01;2.78;;;1.50;;
11653;SDS011;5883;48.818;9.114;2023-09-18T10:58:55;1.83;;;1.30;;
11653;SDS011;5883;48.818;9.114;2023-09-18T11:01:40;3.50;;;1.50;;
11653;SDS011;5883;48.818;9.114;2023-09-18T11:04:26;2.67;;;1.55;;
11653;SDS011;5883;48.818;9.114;2023-09-18T11:07:23;3.88;;;1.65;;
11653;SDS011;5883;48.818;9.114;2023-09-18T11:13:11;1.73;;;1.40;;
11653;SDS011;5883;48.818;9.114;2023-09-18T11:16:01;8.65;;;1.45;;
11653;SDS011;5883;48.818;9.114;2023-09-18T11:18:48;3.85;;;1.35;;
11653;SDS011;5883;48.818;9.114;2023-09-18T11:21:36;3.58;;;1.30;;
11653;SDS011;5883;48.818;9.114;2023-09-18T11:24:22;2.30;;;1.42;;
11653;SDS011;5883;48.818;9.114;2023-09-18T11:27:07;3.28;;;1.50;;
11653;SDS011;5883;48.818;9.114;2023-09-18T11:29:54;1.95;;;1.25;;
11653;SDS011;5883;48.818;9.114;2023-09-18T11:32:40;4.80;;;1.30;;
11653;SDS011;5883;48.818;9.114;2023-09-18T11:35:25;3.80;;;1.48;;
11653;SDS011;5883;48.818;9.114;2023-09-18T11:38:11;3.35;;;1.33;;
11653;SDS011;5883;48.818;9.114;2023-09-18T11:40:58;2.97;;;1.50;;
11653;SDS011;5883;48.818;9.114;2023-09-18T11:43:45;1.77;;;1.08;;
11653;SDS011;5883;48.818;9.114;2023-09-18T11:46:30;4.53;;;1.70;;
11653;SDS011;5883;48.818;9.114;2023-09-18T11:49:18;1.45;;;1.13;;
11653;SDS011;5883;48.818;9.114;2023-09-18T11:52:04;7.38;;;1.08;;
11653;SDS011;5883;48.818;9.114;2023-09-18T11:54:50;4.65;;;1.23;;
11653;SDS011;5883;48.818;9.114;2023-09-18T11:57:37;2.03;;;1.17;;
11653;SDS011;5883;48.818;9.114;2023-09-18T12:00:22;5.25;;;1.13;;
11653;SDS011;5883;48.818;9.114;2023-09-18T12:03:15;1.63;;;1.00;;
11653;SDS011;5883;48.818;9.114;2023-09-18T12:06:02;2.83;;;1.00;;
11653;SDS011;5883;48.818;9.114;2023-09-18T12:08:51;2.33;;;1.15;;
11653;SDS011;5883;48.818;9.114;2023-09-18T12:11:36;0.98;;;0.90;;
11653;SDS011;5883;48.818;9.114;2023-09-18T12:14:24;3.80;;;1.05;;
11653;SDS011;5883;48.818;9.114;2023-09-18T12:17:13;1.15;;;1.05;;
11653;SDS011;5883;48.818;9.114;2023-09-18T12:19:58;6.93;;;1.20;;
11653;SDS011;5883;48.818;9.114;2023-09-18T12:22:46;1.48;;;1.10;;
11653;SDS011;5883;48.818;9.114;2023-09-18T12:25:31;2.50;;;1.10;;
11653;SDS011;5883;48.818;9.114;2023-09-18T12:28:17;1.63;;;1.20;;
11653;SDS011;5883;48.818;9.114;2023-09-18T12:31:03;4.65;;;1.30;;
11653;SDS011;5883;48.818;9.114;2023-09-18T12:33:50;1.40;;;1.20;;
11653;SDS011;5883;48.818;9.114;2023-09-18T12:36:36;1.40;;;1.00;;
11653;SDS011;5883;48.818;9.114;2023-09-18T12:39:21;2.47;;;1.10;;
11653;SDS011;5883;48.818;9.114;2023-09-18T12:42:06;3.72;;;1.33;;
11653;SDS011;5883;48.818;9.114;2023-09-18T12:44:52;2.25;;;1.45;;
11653;SDS011;5883;48.818;9.114;2023-09-18T12:47:39;2.38;;;1.13;;
11653;SDS011;5883;48.818;9.114;2023-09-18T12:50:25;2.15;;;1.10;;
11653;SDS011;5883;48.818;9.114;2023-09-18T12:53:10;2.90;;;1.08;;
11653;SDS011;5883;48.818;9.114;2023-09-18T12:56:04;2.45;;;1.27;;
11653;SDS011;5883;48.818;9.114;2023-09-18T12:58:49;1.50;;;1.10;;
11653;SDS011;5883;48.818;9.114;2023-09-18T13:01:35;1.58;;;1.17;;
11653;SDS011;5883;48.818;9.114;2023-09-18T13:04:23;1.77;;;0.98;;
11653;SDS011;5883;48.818;9.114;2023-09-18T13:07:10;1.38;;;0.90;;
11653;SDS011;5883;48.818;9.114;2023-09-18T13:09:59;2.88;;;1.05;;
11653;SDS011;5883;48.818;9.114;2023-09-18T13:12:46;1.23;;;0.90;;
11653;SDS011;5883;48.818;9.114;2023-09-18T13:15:32;1.35;;;0.93;;
11653;SDS011;5883;48.818;9.114;2023-09-18T13:18:17;1.27;;;1.08;;
11653;SDS011;5883;48.818;9.114;2023-09-18T13:21:10;1.75;;;0.98;;
11653;SDS011;5883;48.818;9.114;2023-09-18T13:23:55;3.67;;;1.00;;
11653;SDS011;5883;48.818;9.114;2023-09-18T13:26:40;2.22;;;1.27;;
11653;SDS011;5883;48.818;9.114;2023-09-18T13:29:26;2.35;;;1.35;;
11653;SDS011;5883;48.818;9.114;2023-09-18T13:32:11;1.95;;;1.00;;
11653;SDS011;5883;48.818;9.114;2023-09-18T13:34:57;1.05;;;0.80;;
11653;SDS011;5883;48.818;9.114;2023-09-18T13:37:43;1.58;;;1.20;;
11653;SDS011;5883;48.818;9.114;2023-09-18T13:40:29;3.63;;;1.08;;
11653;SDS011;5883;48.818;9.114;2023-09-18T13:43:14;2.60;;;1.00;;
11653;SDS011;5883;48.818;9.114;2023-09-18T13:45:59;2.55;;;1.25;;
11653;SDS011;5883;48.818;9.114;2023-09-18T13:48:48;1.40;;;1.00;;
11653;SDS011;5883;48.818;9.114;2023-09-18T13:51:33;2.03;;;1.10;;
11653;SDS011;5883;48.818;9.114;2023-09-18T13:54:20;6.03;;;0.90;;
11653;SDS011;5883;48.818;9.114;2023-09-18T13:57:05;2.92;;;1.00;;
11653;SDS011;5883;48.818;9.114;2023-09-18T13:59:50;2.15;;;1.05;;
11653;SDS011;5883;48.818;9.114;2023-09-18T14:02:35;3.17;;;1.40;;
11653;SDS011;5883;48.818;9.114;2023-09-18T14:05:20;3.10;;;1.00;;
11653;SDS011;5883;48.818;9.114;2023-09-18T14:08:06;1.90;;;1.00;;
11653;SDS011;5883;48.818;9.114;2023-09-18T14:10:53;3.50;;;1.00;;
11653;SDS011;5883;48.818;9.114;2023-09-18T14:13:39;2.85;;;1.00;;
11653;SDS011;5883;48.818;9.114;2023-09-18T14:16:25;1.33;;;0.93;;
11653;SDS011;5883;48.818;9.114;2023-09-18T14:19:10;2.15;;;0.90;;
11653;SDS011;5883;48.818;9.114;2023-09-18T14:21:55;1.20;;;0.82;;
11653;SDS011;5883;48.818;9.114;2023-09-18T14:24:40;2.85;;;1.00;;
11653;SDS011;5883;48.818;9.114;2023-09-18T14:27:27;3.13;;;1.17;;
11653;SDS011;5883;48.818;9.114;2023-09-18T14:30:12;3.08;;;1.23;;
11653;SDS011;5883;48.818;9.114;2023-09-18T14:32:58;4.90;;;0.90;;
11653;SDS011;5883;48.818;9.114;2023-09-18T14:35:45;3.75;;;1.02;;
11653;SDS011;5883;48.818;9.114;2023-09-18T14:38:30;1.88;;;1.00;;
11653;SDS011;5883;48.818;9.114;2023-09-18T14:41:16;4.30;;;1.10;;
11653;SDS011;5883;48.818;9.114;2023-09-18T14:44:07;4.93;;;1.10;;
11653;SDS011;5883;48.818;9.114;2023-09-18T14:46:52;2.35;;;0.90;;
11653;SDS011;5883;48.818;9.114;2023-09-18T14:49:37;2.10;;;1.02;;
11653;SDS011;5883;48.818;9.114;2023-09-18T14:52:24;3.03;;;1.00;;
11653;SDS011;5883;48.818;9.114;2023-09-18T14:55:09;3.05;;;1.00;;
11653;SDS011;5883;48.818;9.114;2023-09-18T14:57:54;4.45;;;0.98;;
11653;SDS011;5883;48.818;9.114;2023-09-18T15:00:41;6.15;;;1.10;;
11653;SDS011;5883;48.818;9.114;2023-09-18T15:03:26;1.70;;;0.98;;
11653;SDS011;5883;48.818;9.114;2023-09-18T15:06:11;3.88;;;1.40;;
11653;SDS011;5883;48.818;9.114;2023-09-18T15:08:57;3.88;;;1.08;;
11653;SDS011;5883;48.818;9.114;2023-09-18T15:11:43;4.25;;;1.20;;
11653;SDS011;5883;48.818;9.114;2023-09-18T15:14:28;1.52;;;0.90;;
11653;SDS011;5883;48.818;9.114;2023-09-18T15:17:14;1.17;;;1.08;;
11653;SDS011;5883;48.818;9.114;2023-09-18T15:19:59;2.95;;;1.00;;
11653;SDS011;5883;48.818;9.114;2023-09-18T15:22:45;1.13;;;0.75;;
11653;SDS011;5883;48.818;9.114;2023-09-18T15:25:31;2.35;;;1.05;;
11653;SDS011;5883;48.818;9.114;2023-09-18T15:28:21;3.28;;;1.23;;
11653;SDS011;5883;48.818;9.114;2023-09-18T15:31:07;1.40;;;1.10;;
11653;SDS011;5883;48.818;9.114;2023-09-18T15:33:53;3.70;;;1.10;;
11653;SDS011;5883;48.818;9.114;2023-09-18T15:36:39;2.38;;;0.80;;
11653;SDS011;5883;48.818;9.114;2023-09-18T15:39:24;2.08;;;1.00;;
11653;SDS011;5883;48.818;9.114;2023-09-18T15:42:11;2.72;;;1.38;;
11653;SDS011;5883;48.818;9.114;2023-09-18T15:44:57;2.33;;;0.88;;
11653;SDS011;5883;48.818;9.114;2023-09-18T15:47:42;1.58;;;0.80;;
11653;SDS011;5883;48.818;9.114;2023-09-18T15:50:29;1.20;;;0.90;;
11653;SDS011;5883;48.818;9.114;2023-09-18T15:53:14;1.70;;;0.90;;
11653;SDS011;5883;48.818;9.114;2023-09-18T15:56:00;1.67;;;0.98;;
11653;SDS011;5883;48.818;9.114;2023-09-18T15:58:45;1.70;;;1.23;;
11653;SDS011;5883;48.818;9.114;2023-09-18T16:01:32;3.65;;;1.00;;
11653;SDS011;5883;48.818;9.114;2023-09-18T16:04:21;1.30;;;1.00;;
11653;SDS011;5883;48.818;9.114;2023-09-18T16:07:07;2.50;;;1.30;;
11653;SDS011;5883;48.818;9.114;2023-09-18T16:09:56;2.50;;;1.25;;
11653;SDS011;5883;48.818;9.114;2023-09-18T16:12:42;2.13;;;1.08;;
11653;SDS011;5883;48.818;9.114;2023-09-18T16:15:28;3.40;;;1.55;;
11653;SDS011;5883;48.818;9.114;2023-09-18T16:18:13;2.33;;;1.17;;
11653;SDS011;5883;48.818;9.114;2023-09-18T16:20:58;2.45;;;1.20;;
11653;SDS011;5883;48.818;9.114;2023-09-18T16:23:44;1.95;;;1.30;;
11653;SDS011;5883;48.818;9.114;2023-09-18T16:26:29;1.23;;;1.05;;
11653;SDS011;5883;48.818;9.114;2023-09-18T16:29:14;2.00;;;1.10;;
11653;SDS011;5883;48.818;9.114;2023-09-18T16:31:59;2.80;;;1.00;;
11653;SDS011;5883;48.818;9.114;2023-09-18T16:34:44;1.92;;;1.23;;
11653;SDS011;5883;48.818;9.114;2023-09-18T16:37:29;4.20;;;1.20;;
11653;SDS011;5883;48.818;9.114;2023-09-18T16:40:16;2.28;;;1.55;;
11653;SDS011;5883;48.818;9.114;2023-09-18T16:43:01;3.13;;;1.30;;
11653;SDS011;5883;48.818;9.114;2023-09-18T16:45:46;2.63;;;1.23;;
11653;SDS011;5883;48.818;9.114;2023-09-18T16:48:32;2.97;;;1.15;;
11653;SDS011;5883;48.818;9.114;2023-09-18T16:51:20;2.42;;;1.10;;
11653;SDS011;5883;48.818;9.114;2023-09-18T16:54:05;2.88;;;1.10;;
11653;SDS011;5883;48.818;9.114;2023-09-18T16:56:52;2.22;;;1.10;;
11653;SDS011;5883;48.818;9.114;2023-09-18T16:59:37;2.17;;;1.40;;